Time;durP1;ratioP1;P1;durP2;ratioP2;P2;SDS_P1;SDS_P2;PMS_P1;PMS_P2;Temp;Humidity;BMP_temperature;BMP_pressure;BME280_temperature;BME280_humidity;BME280_pressure;Samples;Min_cycle;Max_cycle;Signal;HPM_P1;HPM_P2
2022/12/02 00:01:48;;;;;;;78.13;28.60;;;;;;;-7.42;53.08;102156.78;6101578;23;20364;-88
2022/12/02 00:04:23;;;;;;;;;;;;;;;-7.01;53.25;102216.34;6102110;23;20363;-89
2022/12/02 00:06:51;;;;;;;77.03;25.38;;;;;;;-7.45;53.15;102135.81;6053398;23;19961;-89
2022/12/02 00:09:23;;;;;;;85.30;28.27;;;;;;;-7.74;53.95;102116.09;6102155;23;20072;-88
2022/12/02 00:11:49;;;;;;;74.80;27.80;;;;;;;-7.56;53.83;102147.28;6100789;23;20478;-89
2022/12/02 00:14:33;;;;;;;87.28;29.48;;;;;;;-7.57;54.61;102150.94;6126323;23;20096;-89
2022/12/02 00:17:00;;;;;;;79.57;28.75;;;;;;;-7.17;53.56;102190.19;6126972;23;20037;-88
2022/12/02 00:19:26;;;;;;;87.72;30.83;;;;;;;-6.91;53.43;102193.34;6054606;23;20017;-88
2022/12/02 00:21:52;;;;;;;83.38;29.52;;;;;;;-7.12;53.06;102195.97;6078521;23;20559;-87
2022/12/02 00:24:18;;;;;;;91.78;32.72;;;;;;;-7.19;53.74;102196.59;6104011;23;20101;-90
2022/12/02 00:26:45;;;;;;;95.22;32.45;;;;;;;-7.32;53.29;102151.56;6124460;23;20077;-89
2022/12/02 00:29:11;;;;;;;97.53;33.37;;;;;;;-6.84;53.08;102214.13;6079317;23;20163;-89
2022/12/02 00:31:37;;;;;;;89.75;32.05;;;;;;;-6.86;52.57;102184.97;6133352;23;20108;-90
2022/12/02 00:34:04;;;;;;;82.80;30.20;;;;;;;-7.02;52.58;102161.47;6083102;23;20353;-87
2022/12/02 00:36:30;;;;;;;92.47;30.70;;;;;;;-7.23;52.84;102164.09;6082551;23;20018;-86
2022/12/02 00:38:56;;;;;;;79.55;30.77;;;;;;;-6.94;52.90;102193.59;6155266;23;20076;-89
2022/12/02 00:41:23;;;;;;;77.65;28.52;;;;;;;-7.04;52.47;102170.56;6131350;23;20432;-87
2022/12/02 00:46:38;;;;;;;71.07;27.10;;;;;;;-7.09;52.17;102125.72;6130771;23;20017;-86
2022/12/02 00:49:08;;;;;;;70.47;25.35;;;;;;;-6.60;52.12;102197.91;6131869;23;20084;-88
2022/12/02 00:51:36;;;;;;;68.20;26.88;;;;;;;-6.91;52.34;102145.47;6107460;23;20018;-90
2022/12/02 00:54:03;;;;;;;76.47;28.27;;;;;;;-6.55;51.94;102204.53;6158555;23;20025;-89
2022/12/02 00:56:31;;;;;;;76.82;26.67;;;;;;;-6.90;51.69;102141.00;6107311;23;20025;-88
2022/12/02 00:58:57;;;;;;;71.53;27.45;;;;;;;-6.77;52.11;102173.56;6133242;23;20034;-88
2022/12/02 01:01:24;;;;;;;73.90;26.73;;;;;;;-6.56;51.58;102215.28;6131844;23;20021;-87
2022/12/02 01:03:50;;;;;;;73.55;26.10;;;;;;;-7.04;51.89;102114.72;6132287;23;20359;-88
2022/12/02 01:06:17;;;;;;;66.45;25.30;;;;;;;-6.61;51.72;102181.09;6084061;23;20112;-87
2022/12/02 01:08:44;;;;;;;78.85;26.10;;;;;;;-6.44;51.81;102203.63;6157441;23;20112;-89
2022/12/02 01:11:10;;;;;;;72.15;27.83;;;;;;;-6.30;51.88;102207.75;6131235;23;20021;-88
2022/12/02 01:13:36;;;;;;;67.18;25.95;;;;;;;-6.44;51.54;102188.47;6155445;23;20060;-89
2022/12/02 01:16:12;;;;;;;75.00;25.27;;;;;;;-6.52;51.46;102187.44;6131537;23;20017;-93
2022/12/02 01:18:38;;;;;;;69.72;25.17;;;;;;;-6.56;51.62;102194.00;6155877;23;20017;-87
2022/12/02 01:21:07;;;;;;;72.82;24.88;;;;;;;-6.60;51.49;102196.06;6110898;23;20033;-88
2022/12/02 01:23:35;;;;;;;74.30;25.65;;;;;;;-6.82;51.73;102182.88;6128399;23;20001;-88
2022/12/02 01:26:01;;;;;;;76.00;27.35;;;;;;;-6.75;52.06;102194.72;6139405;23;20090;-87
2022/12/02 01:28:27;;;;;;;74.32;27.48;;;;;;;-7.18;52.34;102151.28;6086829;23;20017;-88
2022/12/02 01:30:54;;;;;;;75.43;27.90;;;;;;;-7.25;52.34;102130.63;6131554;23;20021;-88
2022/12/02 01:33:20;;;;;;;79.80;28.48;;;;;;;-7.11;52.14;102135.66;6130542;23;20018;-88
2022/12/02 01:35:46;;;;;;;69.93;27.83;;;;;;;-7.06;52.51;102137.94;6141286;23;20065;-88
2022/12/02 01:38:12;;;;;;;77.18;28.48;;;;;;;-6.95;52.01;102153.84;6158848;23;20014;-88
2022/12/02 01:40:38;;;;;;;82.00;28.10;;;;;;;-7.16;52.46;102146.66;6123761;23;20028;-88
2022/12/02 01:43:04;;;;;;;73.60;26.40;;;;;;;-7.31;53.11;102128.50;6087181;23;20017;-88
2022/12/02 01:45:30;;;;;;;72.25;27.33;;;;;;;-7.11;53.41;102178.22;6133999;23;20028;-88
2022/12/02 01:48:00;;;;;;;77.15;26.75;;;;;;;-7.00;53.36;102170.16;6134596;23;20080;-88
2022/12/02 01:50:26;;;;;;;80.95;29.10;;;;;;;-6.88;52.65;102163.84;6109382;23;20028;-88
2022/12/02 01:52:53;;;;;;;81.60;29.05;;;;;;;-6.96;52.54;102125.53;6088317;23;20024;-87
2022/12/02 01:55:22;;;;;;;75.15;26.88;;;;;;;-6.70;52.33;102152.59;6179737;23;20022;-89
2022/12/02 01:57:48;;;;;;;86.15;27.25;;;;;;;-6.41;52.24;102196.22;6124422;23;20029;-87
2022/12/02 02:00:18;;;;;;;92.27;29.30;;;;;;;-6.30;52.35;102216.56;6087927;23;20021;-91
2022/12/02 02:02:45;;;;;;;77.32;28.00;;;;;;;-6.75;51.78;102134.38;6108684;23;20332;-89
2022/12/02 02:05:31;;;;;;;88.15;27.95;;;;;;;-6.27;51.82;102200.34;6105932;23;20021;-88
2022/12/02 02:08:04;;;;;;;77.18;26.60;;;;;;;-6.49;51.94;102187.19;6081856;23;20415;-88
2022/12/02 02:10:31;;;;;;;74.97;26.00;;;;;;;-7.06;52.83;102141.44;6105218;23;20017;-88
2022/12/02 02:13:00;;;;;;;66.80;24.95;;;;;;;-7.11;52.66;102133.84;6130585;23;20537;-88
2022/12/02 02:15:27;;;;;;;73.93;25.95;;;;;;;-6.75;52.88;102160.16;6130273;23;20021;-87
2022/12/02 02:17:55;;;;;;;73.63;26.58;;;;;;;-7.27;52.76;102098.03;6154938;23;20060;-88
2022/12/02 02:20:23;;;;;;;73.13;25.58;;;;;;;-6.98;53.04;102138.16;6131574;23;20045;-87
2022/12/02 02:23:05;;;;;;;73.63;25.67;;;;;;;-6.55;52.82;102196.53;6129781;23;20024;-87
2022/12/02 02:25:38;;;;;;;65.18;24.40;;;;;;;-7.04;52.84;102118.22;6082381;23;20025;-87
2022/12/02 02:28:04;;;;;;;64.38;23.73;;;;;;;-7.21;53.26;102118.81;6130796;23;20021;-88
2022/12/02 02:30:33;;;;;;;65.68;23.65;;;;;;;-7.14;53.50;102158.03;6108080;23;20040;-89
2022/12/02 02:33:03;;;;;;;65.85;22.58;;;;;;;-6.91;53.67;102195.16;6108060;23;20017;-88
2022/12/02 02:35:29;;;;;;;72.35;24.65;;;;;;;-7.23;53.82;102142.00;6107090;23;20025;-88
2022/12/02 02:37:56;;;;;;;66.35;24.75;;;;;;;-7.25;53.51;102131.50;6105671;23;20076;-88
2022/12/02 02:40:25;;;;;;;69.03;23.48;;;;;;;-7.45;53.42;102111.91;6130179;23;20044;-87
2022/12/02 02:43:08;;;;;;;66.68;24.25;;;;;;;-6.86;53.21;102180.47;6130579;23;20017;-88
2022/12/02 02:45:40;;;;;;;72.82;24.88;;;;;;;-7.02;53.11;102123.41;6129489;23;20107;-87
2022/12/02 02:48:09;;;;;;;70.65;24.67;;;;;;;-6.62;53.29;102190.06;6105293;23;20075;-88
2022/12/02 02:50:39;;;;;;;74.70;25.17;;;;;;;-6.74;52.57;102149.38;6106085;23;20020;-87
2022/12/02 02:53:06;;;;;;;71.00;24.98;;;;;;;-6.80;52.67;102155.19;6131233;23;20021;-88
2022/12/02 02:55:34;;;;;;;83.00;25.80;;;;;;;-6.73;53.33;102182.97;6105933;23;20029;-89
2022/12/02 02:58:21;;;;;;;66.28;23.58;;;;;;;-6.41;52.88;102198.03;6155517;23;20021;-88
2022/12/02 03:00:58;;;;;;;70.70;23.67;;;;;;;-6.52;52.56;102179.44;6130508;23;20100;-89
2022/12/02 03:03:31;;;;;;;66.28;23.60;;;;;;;-6.46;52.87;102202.88;6106719;23;20072;-88
2022/12/02 03:06:02;;;;;;;75.35;25.15;;;;;;;-6.47;52.94;102196.72;6131434;23;20088;-88
2022/12/02 03:08:30;;;;;;;73.35;24.17;;;;;;;-6.87;53.02;102125.63;6131159;23;20017;-87
2022/12/02 03:11:00;;;;;;;70.32;25.05;;;;;;;-7.00;52.63;102109.00;6131444;23;20452;-89
2022/12/02 03:13:28;;;;;;;73.50;23.90;;;;;;;-6.76;52.81;102145.97;6070503;23;20025;-89
2022/12/02 03:15:54;;;;;;;67.05;23.02;;;;;;;-6.68;52.52;102158.66;6047051;23;20014;-89
2022/12/02 03:18:21;;;;;;;63.57;23.17;;;;;;;-6.72;52.51;102183.81;6072022;23;20476;-89
2022/12/02 03:20:47;;;;;;;68.85;24.05;;;;;;;-6.72;52.75;102187.34;6071366;23;20262;-88
2022/12/02 03:23:14;;;;;;;57.50;22.20;;;;;;;-6.77;52.61;102167.41;6071705;23;20022;-89
2022/12/02 03:25:41;;;;;;;68.80;23.48;;;;;;;-6.82;53.12;102180.22;6071260;23;20018;-88
2022/12/02 03:28:07;;;;;;;64.28;24.00;;;;;;;-6.90;53.41;102167.59;6040852;23;20070;-88
2022/12/02 03:30:33;;;;;;;66.15;23.45;;;;;;;-6.74;52.91;102177.78;6095866;23;20204;-89
2022/12/02 03:32:59;;;;;;;69.75;24.05;;;;;;;-6.57;52.80;102198.47;6048607;23;20026;-87
2022/12/02 03:35:26;;;;;;;68.97;22.67;;;;;;;-7.11;53.20;102109.91;6047520;23;20049;-87
2022/12/02 03:37:52;;;;;;;72.65;23.58;;;;;;;-6.95;52.87;102141.38;6024316;23;20019;-88
2022/12/02 03:40:18;;;;;;;60.55;23.35;;;;;;;-7.01;52.87;102133.91;6072104;23;20068;-88
2022/12/02 03:42:44;;;;;;;74.22;24.05;;;;;;;-7.11;52.79;102127.69;6107672;23;20022;-87
2022/12/02 03:45:11;;;;;;;66.15;23.30;;;;;;;-7.07;53.39;102198.25;6033910;23;20023;-87
2022/12/02 03:47:38;;;;;;;67.50;24.30;;;;;;;-7.65;53.91;102137.44;6010066;23;20023;-88
2022/12/02 03:50:05;;;;;;;72.30;25.48;;;;;;;-7.59;54.38;102165.28;6045020;23;20018;-89
2022/12/02 03:52:34;;;;;;;71.70;24.35;;;;;;;-7.20;54.47;102205.53;6115513;23;20046;-89
2022/12/02 03:55:00;;;;;;;83.13;26.42;;;;;;;-7.71;54.79;102145.06;6075438;23;20018;-86
2022/12/02 03:57:27;;;;;;;78.60;24.10;;;;;;;-7.76;55.02;102171.97;6015566;23;20430;-87
2022/12/02 03:59:53;;;;;;;75.15;24.45;;;;;;;-8.10;55.79;102141.97;5970368;23;20027;-88
2022/12/02 04:02:21;;;;;;;61.65;22.52;;;;;;;-8.22;56.12;102130.50;6021445;23;20019;-87
2022/12/02 04:04:47;;;;;;;75.13;24.65;;;;;;;-8.06;55.97;102154.84;6019519;23;20084;-89
2022/12/02 04:08:03;;;;;;;64.50;24.15;;;;;;;-7.73;56.03;102219.53;6015829;23;20446;-84
2022/12/02 04:11:07;;;;;;;54.85;20.23;;;;;;;-8.04;55.94;102149.44;6038970;23;20048;-83
2022/12/02 04:13:34;;;;;;;77.18;23.73;;;;;;;-7.97;55.86;102155.94;6039522;23;20319;-85
2022/12/02 04:16:00;;;;;;;73.30;23.30;;;;;;;-7.70;55.42;102165.31;6017100;23;20481;-86
2022/12/02 04:18:26;;;;;;;64.18;23.42;;;;;;;-7.32;54.98;102191.44;6021924;23;20027;-85
2022/12/02 04:21:12;;;;;;;60.38;23.42;;;;;;;-6.94;54.29;102214.03;6042671;23;20019;-88
2022/12/02 04:23:45;;;;;;;61.28;23.35;;;;;;;-7.27;54.03;102140.56;6024371;23;20099;-89
2022/12/02 04:26:11;;;;;;;59.03;22.33;;;;;;;-7.10;53.46;102151.47;6076794;23;20023;-92
2022/12/02 04:28:42;;;;;;;59.30;23.48;;;;;;;-6.63;53.14;102214.97;6056397;23;20018;-87
2022/12/02 04:31:08;;;;;;;61.30;23.75;;;;;;;-7.31;52.70;102108.09;6075346;23;20134;-90
2022/12/02 04:33:45;;;;;;;62.20;22.85;;;;;;;-6.94;53.11;102174.97;6050489;23;20023;-91
2022/12/02 04:36:13;;;;;;;68.30;23.50;;;;;;;-6.56;52.78;102218.78;6141598;23;20531;-90
2022/12/02 04:38:39;;;;;;;61.17;22.83;;;;;;;-6.86;52.27;102169.00;6114066;23;20020;-88
2022/12/02 04:44:23;;;;;;;65.40;24.05;;;;;;;-6.76;51.87;102145.13;6045519;23;20074;-85
2022/12/02 04:47:46;;;;;;;72.40;24.73;;;;;;;-6.25;51.93;102217.03;6048027;23;20474;-90
2022/12/02 04:50:12;;;;;;;67.45;23.92;;;;;;;-6.99;51.90;102108.03;6160063;23;20040;-89
2022/12/02 04:52:38;;;;;;;59.42;22.08;;;;;;;-6.56;52.00;102168.22;6189153;23;20021;-89
2022/12/02 04:55:04;;;;;;;68.72;24.35;;;;;;;-6.39;51.80;102183.63;6202902;23;20033;-86
2022/12/02 04:57:31;;;;;;;74.97;25.63;;;;;;;-6.25;51.64;102213.53;6188144;23;20016;-90
2022/12/02 04:59:59;;;;;;;58.45;23.02;;;;;;;-6.54;51.78;102184.06;6212880;23;20071;-88
2022/12/02 05:02:28;;;;;;;58.30;22.63;;;;;;;-6.82;51.93;102148.31;6242556;23;20000;-88
2022/12/02 05:05:03;;;;;;;60.40;23.38;;;;;;;-6.58;52.03;102212.75;6208089;23;20384;-90
2022/12/02 05:07:48;;;;;;;65.38;23.63;;;;;;;-6.78;52.64;102184.34;6152931;23;20047;-87
2022/12/02 05:10:14;;;;;;;64.90;23.20;;;;;;;-7.11;53.23;102184.38;6220722;23;20024;-88
2022/12/02 05:12:43;;;;;;;57.75;22.85;;;;;;;-7.17;53.62;102187.53;6196057;23;20016;-88
2022/12/02 05:15:10;;;;;;;61.65;23.75;;;;;;;-6.90;53.87;102237.56;6146408;23;20025;-91
2022/12/02 05:17:36;;;;;;;62.07;23.00;;;;;;;-6.75;53.51;102222.16;6172134;23;20079;-91
2022/12/02 05:20:04;;;;;;;63.60;24.52;;;;;;;-7.00;53.28;102164.84;6124167;23;20021;-90
2022/12/02 05:22:30;;;;;;;72.88;25.25;;;;;;;-7.08;52.55;102130.09;6149813;23;20016;-89
2022/12/02 05:24:56;;;;;;;65.50;25.20;;;;;;;-7.37;53.17;102122.72;6174598;23;20024;-90
2022/12/02 05:27:23;;;;;;;65.97;26.15;;;;;;;-7.18;53.59;102196.47;6162960;23;20016;-91
2022/12/02 05:29:50;;;;;;;;;;;;;;;-6.95;53.90;102230.97;6118017;23;20068;-92
2022/12/02 05:32:18;;;;;;;72.47;25.05;;;;;;;-7.05;54.30;102225.56;6128087;23;19920;-90
2022/12/02 05:34:48;;;;;;;69.60;24.42;;;;;;;-7.61;54.51;102167.25;6126858;23;20029;-89
2022/12/02 05:37:15;;;;;;;65.70;24.20;;;;;;;-7.09;54.73;102234.72;6116822;23;20017;-91
2022/12/02 05:39:41;;;;;;;58.63;24.13;;;;;;;-7.66;54.52;102135.72;6114597;23;20021;-93
2022/12/02 05:42:17;;;;;;;58.03;22.38;;;;;;;-7.60;54.48;102156.47;6093620;23;20061;-90
2022/12/02 05:44:44;;;;;;;56.92;22.30;;;;;;;-7.55;54.57;102158.75;6094101;23;20406;-93
2022/12/02 05:47:21;;;;;;;64.15;25.17;;;;;;;-7.16;54.90;102233.56;6119227;23;20029;-90
2022/12/02 05:49:48;;;;;;;65.32;23.23;;;;;;;-7.10;54.48;102222.41;6120175;23;20033;-92
2022/12/02 05:52:26;;;;;;;68.15;24.75;;;;;;;-6.82;54.00;102239.63;6099980;23;20025;-92
2022/12/02 05:54:57;;;;;;;62.65;23.75;;;;;;;-6.97;53.90;102201.81;6080354;23;20065;-92
2022/12/02 05:57:28;;;;;;;63.63;25.05;;;;;;;-6.92;54.17;102199.63;6038662;23;20087;-92
2022/12/02 06:00:11;;;;;;;71.20;24.27;;;;;;;-6.78;53.71;102242.88;6085391;23;20014;-93
2022/12/02 06:02:46;;;;;;;69.10;24.08;;;;;;;-7.22;54.43;102186.19;6041891;23;20011;-92
2022/12/02 06:05:26;;;;;;;64.75;23.55;;;;;;;-6.87;54.23;102239.13;6051687;23;20002;-92
2022/12/02 06:08:20;;;;;;;64.45;23.98;;;;;;;-6.82;53.95;102239.63;6049081;23;20034;-92
2022/12/02 06:10:52;;;;;;;61.35;23.73;;;;;;;-7.13;53.62;102180.97;6096594;23;20023;-92
2022/12/02 06:13:28;;;;;;;67.65;24.55;;;;;;;-6.77;53.78;102231.25;6098922;23;20002;-91
2022/12/02 06:16:22;;;;;;;64.03;24.23;;;;;;;-6.88;53.40;102209.03;6079160;23;19998;-93
2022/12/02 06:18:49;;;;;;;59.78;20.90;;;;;;;-7.12;53.39;102176.50;6074930;23;20022;-91
2022/12/02 06:21:19;;;;;;;65.40;23.88;;;;;;;-6.94;53.76;102204.22;6081627;23;20103;-92
2022/12/02 06:23:53;;;;;;;62.85;23.50;;;;;;;-6.62;53.53;102253.91;6079824;23;20030;-91
2022/12/02 06:26:20;;;;;;;53.45;22.45;;;;;;;-6.44;53.29;102257.69;6017433;23;20041;-92
2022/12/02 06:29:01;;;;;;;61.80;22.23;;;;;;;-6.69;53.34;102207.50;6087975;23;20026;-91
2022/12/02 06:31:35;;;;;;;70.70;23.30;;;;;;;-6.48;52.70;102210.19;6016581;23;20047;-92
2022/12/02 06:34:30;;;;;;;66.95;23.73;;;;;;;-6.28;52.37;102254.56;6087906;23;20552;-90
2022/12/02 06:37:08;;;;;;;56.40;22.08;;;;;;;-6.36;52.45;102222.41;6060192;23;20022;-92
2022/12/02 06:39:34;;;;;;;58.17;22.20;;;;;;;-6.46;52.33;102209.03;6063256;23;20054;-92
2022/12/02 06:42:18;;;;;;;59.35;21.45;;;;;;;-6.67;52.10;102163.00;6084262;23;20021;-92
2022/12/02 06:45:03;;;;;;;58.40;22.77;;;;;;;-6.18;52.29;102246.66;6058853;23;20030;-91
2022/12/02 06:47:32;;;;;;;57.58;22.38;;;;;;;-6.21;52.49;102244.25;6039130;23;20021;-92
2022/12/02 06:50:26;;;;;;;62.60;24.25;;;;;;;-6.33;52.50;102213.34;6108634;23;20045;-91
2022/12/02 06:53:01;;;;;;;61.70;23.30;;;;;;;-6.02;52.20;102252.34;6091034;23;20022;-91
2022/12/02 06:55:42;;;;;;;53.20;21.48;;;;;;;-6.24;52.06;102216.06;6064575;23;20113;-92
2022/12/02 06:58:33;;;;;;;62.50;21.40;;;;;;;-6.53;52.33;102189.25;6109997;23;20058;-91
2022/12/02 07:01:14;;;;;;;54.90;20.65;;;;;;;-6.11;52.71;102262.94;6109176;23;20042;-93
2022/12/02 07:03:49;;;;;;;60.45;22.10;;;;;;;-6.19;52.16;102239.59;6062205;23;20082;-91
2022/12/02 07:06:22;;;;;;;63.00;23.15;;;;;;;-6.74;53.15;102169.81;6062513;23;20082;-92
2022/12/02 07:08:49;;;;;;;60.70;22.98;;;;;;;-6.24;52.84;102225.88;6126376;23;20016;-91
2022/12/02 07:12:08;;;;;;;75.97;24.08;;;;;;;-5.86;52.63;102261.63;6151315;23;20024;-91
2022/12/02 07:14:39;;;;;;;60.90;23.42;;;;;;;-5.90;52.44;102261.03;6160572;23;20027;-91
2022/12/02 07:17:36;;;;;;;57.85;21.52;;;;;;;-6.03;52.24;102234.66;6137306;23;20013;-90
2022/12/02 07:20:33;;;;;;;52.92;21.52;;;;;;;-6.05;52.58;102238.44;6024542;23;20019;-90
2022/12/02 07:23:10;;;;;;;72.47;28.17;;;;;;;-5.89;52.84;102273.41;6027125;23;20022;-91
2022/12/02 07:25:41;;;;;;;60.65;22.58;;;;;;;-6.32;52.76;102215.00;6028496;23;20037;-91
2022/12/02 07:28:43;;;;;;;57.00;21.40;;;;;;;-6.03;52.64;102241.81;6052058;23;20050;-91
2022/12/02 07:31:26;;;;;;;61.47;21.80;;;;;;;-6.13;52.73;102217.78;6033133;23;20082;-90
2022/12/02 07:33:55;;;;;;;53.78;22.00;;;;;;;-6.05;52.62;102233.97;6076721;23;20021;-91
2022/12/02 07:36:21;;;;;;;55.90;22.23;;;;;;;-5.99;52.49;102246.75;6027261;23;20022;-91
2022/12/02 07:38:48;;;;;;;55.17;20.98;;;;;;;-6.04;52.22;102254.28;6027529;23;20023;-91
2022/12/02 07:41:14;;;;;;;58.55;21.88;;;;;;;-6.69;52.95;102164.91;6049247;23;20201;-90
2022/12/02 07:43:42;;;;;;;57.83;23.15;;;;;;;-6.06;53.01;102276.69;6026990;23;20023;-90
2022/12/02 07:46:08;;;;;;;57.90;22.40;;;;;;;-6.44;53.12;102217.75;6001538;23;20022;-90
2022/12/02 07:48:35;;;;;;;53.90;22.10;;;;;;;-6.10;53.08;102264.63;6027842;23;20015;-91
2022/12/02 07:51:02;;;;;;;59.08;23.02;;;;;;;-6.33;52.76;102211.50;6026620;23;20018;-92
2022/12/02 07:53:30;;;;;;;58.55;22.30;;;;;;;-6.09;53.02;102271.63;6079489;23;20078;-92
2022/12/02 07:55:57;;;;;;;57.63;22.17;;;;;;;-6.06;53.20;102255.38;6075586;23;20017;-91
2022/12/02 07:58:24;;;;;;;56.42;22.90;;;;;;;-6.12;52.99;102243.47;6152246;23;20028;-92
2022/12/02 08:00:50;;;;;;;61.33;23.02;;;;;;;-5.99;53.21;102281.38;6127123;23;20020;-90
2022/12/02 08:03:17;;;;;;;58.78;22.55;;;;;;;-6.09;52.96;102218.38;6148380;23;20048;-91
2022/12/02 08:05:43;;;;;;;54.25;22.15;;;;;;;-6.31;53.02;102216.72;6152905;23;20021;-92
2022/12/02 08:08:12;;;;;;;59.85;23.38;;;;;;;-6.39;53.56;102209.38;6160789;23;20043;-92
2022/12/02 08:10:39;;;;;;;60.03;23.65;;;;;;;-6.16;53.30;102242.00;6179242;23;20021;-91
2022/12/02 08:13:05;;;;;;;59.70;23.40;;;;;;;-6.02;53.62;102289.63;6159898;23;20303;-92
2022/12/02 08:15:33;;;;;;;61.10;23.10;;;;;;;-5.89;53.51;102294.72;6188343;23;20008;-90
2022/12/02 08:18:03;;;;;;;61.05;23.38;;;;;;;-5.86;52.82;102291.78;6167898;23;20000;-92
2022/12/02 08:20:31;;;;;;;59.88;22.38;;;;;;;-6.01;53.24;102279.81;6165082;23;20001;-89
2022/12/02 08:23:06;;;;;;;56.53;21.65;;;;;;;-6.34;53.38;102224.97;6219087;23;20103;-91
2022/12/02 08:25:32;;;;;;;57.95;22.17;;;;;;;-6.23;52.90;102228.38;6164818;23;20029;-92
2022/12/02 08:28:00;;;;;;;59.90;22.35;;;;;;;-5.84;52.67;102273.84;6145250;23;20048;-87
2022/12/02 08:30:35;;;;;;;49.10;20.90;;;;;;;-5.82;52.69;102260.41;6093722;23;20535;-87
2022/12/02 08:33:14;;;;;;;59.78;23.65;;;;;;;-5.55;52.61;102292.63;6137993;23;20021;-86
2022/12/02 08:35:43;;;;;;;55.33;22.50;;;;;;;-5.89;52.43;102238.78;6165433;23;20021;-88
2022/12/02 08:38:20;;;;;;;62.80;21.77;;;;;;;-5.69;52.39;102251.19;6141629;23;20021;-87
2022/12/02 08:40:46;;;;;;;54.47;22.02;;;;;;;-5.88;52.62;102260.94;6141728;23;20045;-91
2022/12/02 08:43:12;;;;;;;58.08;23.45;;;;;;;-6.04;53.24;102264.94;6090331;23;20028;-88
2022/12/02 08:45:44;;;;;;;56.28;23.25;;;;;;;-5.81;53.13;102278.06;6165518;23;20029;-87
2022/12/02 08:48:11;;;;;;;60.90;24.10;;;;;;;-6.16;53.39;102202.06;6182870;23;20013;-86
2022/12/02 08:50:43;;;;;;;63.13;24.75;;;;;;;-5.78;52.91;102246.66;6172806;23;20068;-85
2022/12/02 08:53:09;;;;;;;56.42;23.25;;;;;;;-6.16;52.93;102200.28;6140331;23;20341;-86
2022/12/02 08:55:41;;;;;;;51.90;20.92;;;;;;;-5.80;52.81;102274.41;6163675;23;20017;-91
2022/12/02 08:58:08;;;;;;;63.53;22.40;;;;;;;-5.88;53.04;102287.56;6159352;23;20013;-87
2022/12/02 09:00:34;;;;;;;54.20;21.40;;;;;;;-6.24;54.04;102266.63;6113388;23;20009;-86
2022/12/02 09:03:00;;;;;;;62.80;23.07;;;;;;;-6.33;54.11;102238.13;6138398;23;20104;-87
2022/12/02 09:05:29;;;;;;;58.80;21.50;;;;;;;-6.16;53.79;102280.16;6137490;23;20025;-86
2022/12/02 09:07:55;;;;;;;56.10;22.55;;;;;;;-6.26;54.18;102276.56;6166039;23;20021;-88
2022/12/02 09:10:21;;;;;;;60.55;23.52;;;;;;;-6.37;54.43;102244.69;6140861;23;20052;-87
2022/12/02 09:12:48;;;;;;;66.63;23.77;;;;;;;-6.27;54.34;102247.44;6115601;23;20116;-86
2022/12/02 09:15:14;;;;;;;71.73;25.00;;;;;;;-6.15;54.64;102271.19;6114343;23;20113;-84
2022/12/02 09:17:41;;;;;;;60.17;23.13;;;;;;;-6.17;54.61;102270.47;6141189;23;20013;-88
2022/12/02 09:20:09;;;;;;;61.65;24.08;;;;;;;-6.55;55.01;102211.69;6116962;23;20163;-85
2022/12/02 09:22:35;;;;;;;71.35;24.77;;;;;;;-6.14;54.65;102293.31;6164223;23;20076;-87
2022/12/02 09:25:03;;;;;;;66.85;23.02;;;;;;;-6.37;54.95;102268.66;6162617;23;20045;-87
2022/12/02 09:27:40;;;;;;;79.20;24.13;;;;;;;-6.22;54.42;102267.38;6141076;23;20017;-86
2022/12/02 09:30:07;;;;;;;57.03;22.95;;;;;;;-6.19;54.75;102288.41;6137494;23;20108;-87
2022/12/02 09:32:34;;;;;;;62.13;21.58;;;;;;;-6.78;55.04;102209.13;6110702;23;20021;-87
2022/12/02 09:35:01;;;;;;;59.88;23.90;;;;;;;-6.26;54.65;102273.91;6131515;23;20021;-87
2022/12/02 09:37:29;;;;;;;65.28;24.75;;;;;;;-6.32;55.10;102255.81;6158581;23;20407;-85
2022/12/02 09:39:55;;;;;;;63.95;24.48;;;;;;;-6.17;54.92;102264.31;6133963;23;20117;-85
2022/12/02 09:42:22;;;;;;;63.72;23.33;;;;;;;-6.06;54.72;102269.56;6136948;23;20022;-86
2022/12/02 09:44:50;;;;;;;57.03;23.15;;;;;;;-6.36;54.51;102222.41;6111453;23;20030;-86
2022/12/02 09:47:20;;;;;;;61.95;22.70;;;;;;;-6.08;54.22;102260.03;6110011;23;20049;-87
2022/12/02 09:49:47;;;;;;;58.42;22.50;;;;;;;-6.14;54.47;102240.06;6132984;23;20017;-85
2022/12/02 09:52:24;;;;;;;53.20;21.52;;;;;;;-6.18;54.36;102228.84;6156325;23;20457;-88
2022/12/02 09:54:58;;;;;;;54.38;22.90;;;;;;;-5.95;54.89;102269.47;6134664;23;20017;-87
2022/12/02 09:57:30;;;;;;;55.10;20.83;;;;;;;-5.95;54.22;102232.19;6171833;23;20086;-88
2022/12/02 10:00:13;;;;;;;57.72;22.55;;;;;;;-5.75;54.44;102269.53;6169085;23;20077;-86
2022/12/02 10:02:44;;;;;;;58.67;23.08;;;;;;;-5.81;54.63;102275.41;6094858;23;20048;-88
2022/12/02 10:05:28;;;;;;;58.28;23.27;;;;;;;-5.62;54.27;102275.50;6120033;23;20030;-85
2022/12/02 10:08:23;;;;;;;58.58;23.95;;;;;;;-5.93;54.19;102213.41;6147795;23;20021;-86
2022/12/02 10:10:58;;;;;;;66.53;23.00;;;;;;;-5.71;53.79;102244.31;6100339;23;20033;-86
2022/12/02 10:13:26;;;;;;;63.42;24.05;;;;;;;-6.03;53.90;102194.72;6170934;23;20022;-87
2022/12/02 10:16:11;;;;;;;49.15;20.95;;;;;;;-6.36;53.96;102136.41;6120528;23;20087;-87
2022/12/02 10:18:41;;;;;;;59.08;22.95;;;;;;;-6.12;53.98;102178.69;6116813;23;20028;-87
2022/12/02 10:21:08;;;;;;;57.25;23.58;;;;;;;-5.77;54.19;102237.69;6103906;23;20078;-86
2022/12/02 10:24:14;;;;;;;66.97;23.15;;;;;;;-5.84;54.40;102238.38;6106422;23;20028;-89
2022/12/02 10:26:46;;;;;;;55.20;21.23;;;;;;;-5.69;54.58;102255.69;6065861;23;20090;-90
2022/12/02 10:29:42;;;;;;;52.55;21.88;;;;;;;-5.91;54.82;102219.41;6091739;23;20010;-86
2022/12/02 10:32:23;;;;;;;51.83;20.88;;;;;;;-5.98;55.11;102218.28;6117687;23;20144;-89
2022/12/02 10:35:08;;;;;;;63.13;23.77;;;;;;;-6.01;55.00;102230.06;6119052;23;19998;-90
2022/12/02 10:38:09;;;;;;;61.38;24.42;;;;;;;-6.18;54.95;102188.91;6094292;23;20019;-90
2022/12/02 10:41:34;;;;;;;56.75;22.25;;;;;;;-6.16;55.04;102180.78;6175027;22;20059;-89
2022/12/02 10:47:25;;;;;;;63.17;22.20;;;;;;;-6.15;55.40;102188.66;6209191;23;20028;-87
2022/12/02 10:50:06;;;;;;;59.97;23.42;;;;;;;-5.62;55.45;102262.16;6176525;23;20027;-86
2022/12/02 10:52:56;;;;;;;58.95;23.00;;;;;;;-5.65;55.03;102259.78;6200792;23;20017;-86
2022/12/02 10:55:27;;;;;;;64.57;26.63;;;;;;;-5.84;55.62;102243.69;6110556;23;20028;-86
2022/12/02 10:57:54;;;;;;;64.63;25.27;;;;;;;-5.63;55.30;102233.81;6147178;23;20025;-88
2022/12/02 11:00:23;;;;;;;76.70;27.98;;;;;;;-5.21;54.47;102268.31;6141151;23;20017;-86
2022/12/02 11:02:51;;;;;;;78.30;28.90;;;;;;;-5.17;53.98;102263.56;6197626;23;20017;-86
2022/12/02 11:05:20;;;;;;;83.53;28.25;;;;;;;-5.27;53.67;102237.69;6202012;23;20000;-89
2022/12/02 11:07:53;;;;;;;77.70;26.95;;;;;;;-5.02;53.61;102273.69;6168693;23;20020;-85
2022/12/02 11:10:27;;;;;;;73.40;26.38;;;;;;;-5.46;53.50;102195.03;6168179;23;20490;-85
2022/12/02 11:12:58;;;;;;;69.20;26.80;;;;;;;-4.94;53.53;102272.16;6166538;23;20039;-89
2022/12/02 11:15:46;;;;;;;62.33;25.33;;;;;;;-5.28;53.51;102214.69;6119540;23;20041;-86
2022/12/02 11:18:38;;;;;;;69.63;25.52;;;;;;;-4.91;53.47;102269.22;6161955;23;20017;-86
2022/12/02 11:21:07;;;;;;;71.90;28.10;;;;;;;-4.85;53.11;102258.00;6165813;23;20432;-87
2022/12/02 11:23:35;;;;;;;68.97;26.65;;;;;;;-4.99;53.14;102229.91;6162399;23;20016;-87
2022/12/02 11:26:05;;;;;;;63.08;25.75;;;;;;;-5.20;52.67;102184.66;6189858;23;20100;-86
2022/12/02 11:28:34;;;;;;;69.20;26.42;;;;;;;-5.13;52.81;102196.47;6161294;23;20020;-83
2022/12/02 11:31:09;;;;;;;62.85;25.85;;;;;;;-4.67;52.98;102266.97;6138222;23;20016;-86
2022/12/02 11:34:00;;;;;;;54.45;22.42;;;;;;;-4.77;52.60;102264.31;6189401;23;20064;-85
2022/12/02 11:36:35;;;;;;;57.85;23.05;;;;;;;-4.86;52.92;102262.47;6184945;23;20036;-86
2022/12/02 11:39:04;;;;;;;59.42;22.38;;;;;;;-4.70;52.71;102271.75;6114444;23;20017;-86
2022/12/02 11:41:46;;;;;;;63.55;22.85;;;;;;;-4.63;52.77;102268.41;6189015;23;20024;-85